sensor_id;sensor_type;location;lat;lon;timestamp;pressure;altitude;pressure_sealevel;temperature;humidity
43701;BME280;58809;47.984;7.964;2022-10-26T00:01:41;97136.63;;;13.51;100.00
43701;BME280;58809;47.984;7.964;2022-10-26T00:04:45;97120.47;;;13.39;100.00
43701;BME280;58809;47.984;7.964;2022-10-26T00:07:47;97121.28;;;13.40;100.00
43701;BME280;58809;47.984;7.964;2022-10-26T00:10:48;97119.19;;;13.35;100.00
43701;BME280;58809;47.984;7.964;2022-10-26T00:13:50;97137.00;;;13.35;100.00
43701;BME280;58809;47.984;7.964;2022-10-26T00:16:51;97146.81;;;13.34;100.00
43701;BME280;58809;47.984;7.964;2022-10-26T00:19:53;97141.69;;;13.33;100.00
43701;BME280;58809;47.984;7.964;2022-10-26T00:22:55;97149.03;;;13.31;100.00
43701;BME280;58809;47.984;7.964;2022-10-26T00:25:56;97141.44;;;13.27;100.00
43701;BME280;58809;47.984;7.964;2022-10-26T00:28:58;97134.69;;;13.25;100.00
43701;BME280;58809;47.984;7.964;2022-10-26T00:31:59;97135.88;;;13.22;100.00
43701;BME280;58809;47.984;7.964;2022-10-26T00:35:03;97138.34;;;13.24;100.00
43701;BME280;58809;47.984;7.964;2022-10-26T00:38:23;97141.00;;;13.24;100.00
43701;BME280;58809;47.984;7.964;2022-10-26T00:41:29;97136.53;;;13.24;100.00
43701;BME280;58809;47.984;7.964;2022-10-26T00:44:44;97131.63;;;13.21;100.00
43701;BME280;58809;47.984;7.964;2022-10-26T00:47:58;97136.09;;;13.14;100.00
43701;BME280;58809;47.984;7.964;2022-10-26T00:51:01;97134.63;;;13.05;100.00
43701;BME280;58809;47.984;7.964;2022-10-26T00:54:04;97125.19;;;12.96;100.00
43701;BME280;58809;47.984;7.964;2022-10-26T00:57:06;97130.88;;;12.86;100.00
43701;BME280;58809;47.984;7.964;2022-10-26T01:00:08;97131.22;;;12.76;100.00
43701;BME280;58809;47.984;7.964;2022-10-26T01:03:09;97138.13;;;12.70;100.00
43701;BME280;58809;47.984;7.964;2022-10-26T01:06:11;97153.63;;;12.67;100.00
43701;BME280;58809;47.984;7.964;2022-10-26T01:09:13;97149.09;;;12.61;100.00
43701;BME280;58809;47.984;7.964;2022-10-26T01:12:15;97153.19;;;12.63;100.00
43701;BME280;58809;47.984;7.964;2022-10-26T01:15:17;97151.22;;;12.72;100.00
43701;BME280;58809;47.984;7.964;2022-10-26T01:18:21;97157.63;;;12.84;100.00
43701;BME280;58809;47.984;7.964;2022-10-26T01:27:47;97165.25;;;13.01;100.00
43701;BME280;58809;47.984;7.964;2022-10-26T01:30:51;97165.88;;;13.03;100.00
43701;BME280;58809;47.984;7.964;2022-10-26T01:33:56;97181.81;;;13.03;100.00
43701;BME280;58809;47.984;7.964;2022-10-26T01:37:07;97195.91;;;13.03;100.00
43701;BME280;58809;47.984;7.964;2022-10-26T01:40:28;97203.69;;;13.05;100.00
43701;BME280;58809;47.984;7.964;2022-10-26T01:43:32;97204.47;;;12.99;100.00
43701;BME280;58809;47.984;7.964;2022-10-26T01:46:37;97219.38;;;13.00;100.00
43701;BME280;58809;47.984;7.964;2022-10-26T01:49:52;97217.53;;;13.00;100.00
43701;BME280;58809;47.984;7.964;2022-10-26T01:52:55;97235.38;;;13.06;100.00
43701;BME280;58809;47.984;7.964;2022-10-26T01:55:57;97267.44;;;13.05;100.00
43701;BME280;58809;47.984;7.964;2022-10-26T01:59:06;97264.72;;;12.98;100.00
43701;BME280;58809;47.984;7.964;2022-10-26T02:08:25;97287.63;;;12.99;100.00
43701;BME280;58809;47.984;7.964;2022-10-26T02:11:31;97282.16;;;13.07;100.00
43701;BME280;58809;47.984;7.964;2022-10-26T02:14:48;97265.84;;;13.10;100.00
43701;BME280;58809;47.984;7.964;2022-10-26T02:17:50;97266.88;;;13.16;100.00
43701;BME280;58809;47.984;7.964;2022-10-26T02:20:54;97269.97;;;13.20;100.00
43701;BME280;58809;47.984;7.964;2022-10-26T02:23:57;97287.56;;;13.21;100.00
43701;BME280;58809;47.984;7.964;2022-10-26T02:26:59;97276.34;;;13.25;100.00
43701;BME280;58809;47.984;7.964;2022-10-26T02:30:02;97265.97;;;13.31;100.00
43701;BME280;58809;47.984;7.964;2022-10-26T02:33:05;97269.59;;;13.29;100.00
43701;BME280;58809;47.984;7.964;2022-10-26T02:36:08;97275.09;;;13.21;100.00
43701;BME280;58809;47.984;7.964;2022-10-26T02:39:12;97278.56;;;13.22;100.00
43701;BME280;58809;47.984;7.964;2022-10-26T02:42:16;97265.28;;;13.22;100.00
43701;BME280;58809;47.984;7.964;2022-10-26T02:45:22;97240.56;;;13.21;100.00
43701;BME280;58809;47.984;7.964;2022-10-26T02:48:25;97234.19;;;13.16;100.00
43701;BME280;58809;47.984;7.964;2022-10-26T02:51:32;97221.72;;;13.16;100.00
43701;BME280;58809;47.984;7.964;2022-10-26T02:54:39;97215.59;;;13.16;100.00
43701;BME280;58809;47.984;7.964;2022-10-26T02:57:43;97210.72;;;13.19;100.00
43701;BME280;58809;47.984;7.964;2022-10-26T03:00:47;97209.09;;;13.25;100.00
43701;BME280;58809;47.984;7.964;2022-10-26T03:03:49;97224.44;;;13.29;100.00
43701;BME280;58809;47.984;7.964;2022-10-26T03:06:51;97243.25;;;13.28;100.00
43701;BME280;58809;47.984;7.964;2022-10-26T03:09:53;97254.06;;;13.26;100.00
43701;BME280;58809;47.984;7.964;2022-10-26T03:12:55;97253.16;;;13.13;100.00
43701;BME280;58809;47.984;7.964;2022-10-26T03:15:56;97247.78;;;12.99;100.00
43701;BME280;58809;47.984;7.964;2022-10-26T03:18:57;97261.25;;;12.98;100.00
43701;BME280;58809;47.984;7.964;2022-10-26T03:21:59;97249.41;;;13.00;100.00
43701;BME280;58809;47.984;7.964;2022-10-26T03:25:00;97251.50;;;13.05;100.00
43701;BME280;58809;47.984;7.964;2022-10-26T03:28:03;97253.16;;;13.06;100.00
43701;BME280;58809;47.984;7.964;2022-10-26T03:31:05;97229.44;;;13.04;100.00
43701;BME280;58809;47.984;7.964;2022-10-26T03:34:08;97243.53;;;13.05;100.00
43701;BME280;58809;47.984;7.964;2022-10-26T03:37:10;97240.31;;;13.16;100.00
43701;BME280;58809;47.984;7.964;2022-10-26T03:40:11;97241.16;;;13.23;100.00
43701;BME280;58809;47.984;7.964;2022-10-26T03:43:13;97234.63;;;13.26;100.00
43701;BME280;58809;47.984;7.964;2022-10-26T03:46:14;97238.94;;;13.27;100.00
43701;BME280;58809;47.984;7.964;2022-10-26T03:49:16;97228.50;;;13.25;100.00
43701;BME280;58809;47.984;7.964;2022-10-26T03:52:17;97235.03;;;13.23;100.00
43701;BME280;58809;47.984;7.964;2022-10-26T03:55:18;97225.03;;;13.25;100.00
43701;BME280;58809;47.984;7.964;2022-10-26T03:58:20;97222.44;;;13.32;100.00
43701;BME280;58809;47.984;7.964;2022-10-26T04:01:21;97223.06;;;13.34;100.00
43701;BME280;58809;47.984;7.964;2022-10-26T04:04:23;97216.53;;;13.36;100.00
43701;BME280;58809;47.984;7.964;2022-10-26T04:07:24;97210.63;;;13.41;100.00
43701;BME280;58809;47.984;7.964;2022-10-26T04:10:26;97210.63;;;13.41;100.00
43701;BME280;58809;47.984;7.964;2022-10-26T04:13:27;97208.34;;;13.38;100.00
43701;BME280;58809;47.984;7.964;2022-10-26T04:16:29;97205.47;;;13.33;100.00
43701;BME280;58809;47.984;7.964;2022-10-26T04:19:33;97208.47;;;13.29;100.00
43701;BME280;58809;47.984;7.964;2022-10-26T04:22:35;97209.53;;;13.28;100.00
43701;BME280;58809;47.984;7.964;2022-10-26T04:25:36;97202.56;;;13.27;100.00
43701;BME280;58809;47.984;7.964;2022-10-26T04:28:38;97209.09;;;13.25;100.00
43701;BME280;58809;47.984;7.964;2022-10-26T04:31:39;97206.63;;;13.23;100.00
43701;BME280;58809;47.984;7.964;2022-10-26T04:34:47;97213.59;;;13.24;100.00
43701;BME280;58809;47.984;7.964;2022-10-26T04:37:48;97215.03;;;13.27;100.00
43701;BME280;58809;47.984;7.964;2022-10-26T04:40:50;97234.84;;;13.24;100.00
43701;BME280;58809;47.984;7.964;2022-10-26T04:43:51;97235.66;;;13.25;100.00
43701;BME280;58809;47.984;7.964;2022-10-26T04:46:52;97235.47;;;13.26;100.00
43701;BME280;58809;47.984;7.964;2022-10-26T04:49:54;97256.72;;;13.26;100.00
43701;BME280;58809;47.984;7.964;2022-10-26T04:52:55;97249.75;;;13.25;100.00
43701;BME280;58809;47.984;7.964;2022-10-26T04:55:58;97254.47;;;13.23;100.00
43701;BME280;58809;47.984;7.964;2022-10-26T04:58:59;97246.69;;;13.22;100.00
43701;BME280;58809;47.984;7.964;2022-10-26T05:02:01;97262.63;;;13.22;100.00
43701;BME280;58809;47.984;7.964;2022-10-26T05:05:03;97256.50;;;13.21;100.00
43701;BME280;58809;47.984;7.964;2022-10-26T05:08:09;97246.50;;;13.23;100.00
43701;BME280;58809;47.984;7.964;2022-10-26T05:11:10;97249.75;;;13.25;100.00
43701;BME280;58809;47.984;7.964;2022-10-26T05:14:12;97256.13;;;13.24;100.00
43701;BME280;58809;47.984;7.964;2022-10-26T05:17:13;97248.13;;;13.24;100.00
43701;BME280;58809;47.984;7.964;2022-10-26T05:20:15;97249.53;;;13.20;100.00
43701;BME280;58809;47.984;7.964;2022-10-26T05:23:16;97254.22;;;13.18;100.00
43701;BME280;58809;47.984;7.964;2022-10-26T05:26:19;97256.44;;;13.15;100.00
43701;BME280;58809;47.984;7.964;2022-10-26T05:29:20;97259.53;;;13.12;100.00
43701;BME280;58809;47.984;7.964;2022-10-26T05:32:22;97263.59;;;13.14;100.00
43701;BME280;58809;47.984;7.964;2022-10-26T05:35:24;97257.91;;;13.17;100.00
43701;BME280;58809;47.984;7.964;2022-10-26T05:38:26;97267.13;;;13.21;100.00
43701;BME280;58809;47.984;7.964;2022-10-26T05:41:32;97272.00;;;13.18;100.00
43701;BME280;58809;47.984;7.964;2022-10-26T05:44:33;97278.53;;;13.15;100.00
43701;BME280;58809;47.984;7.964;2022-10-26T05:47:41;97286.91;;;13.12;100.00
43701;BME280;58809;47.984;7.964;2022-10-26T05:50:43;97297.28;;;13.07;100.00
43701;BME280;58809;47.984;7.964;2022-10-26T05:53:44;97288.69;;;13.05;100.00
43701;BME280;58809;47.984;7.964;2022-10-26T05:56:46;97295.22;;;13.02;100.00
43701;BME280;58809;47.984;7.964;2022-10-26T05:59:48;97291.09;;;13.00;100.00
43701;BME280;58809;47.984;7.964;2022-10-26T06:03:12;97295.97;;;12.96;100.00
43701;BME280;58809;47.984;7.964;2022-10-26T06:06:20;97290.84;;;12.95;100.00
43701;BME280;58809;47.984;7.964;2022-10-26T06:09:22;97296.38;;;12.93;100.00
43701;BME280;58809;47.984;7.964;2022-10-26T06:12:23;97302.31;;;12.95;100.00
43701;BME280;58809;47.984;7.964;2022-10-26T06:15:26;97313.56;;;12.97;100.00
43701;BME280;58809;47.984;7.964;2022-10-26T06:22:07;97318.28;;;13.02;100.00
43701;BME280;58809;47.984;7.964;2022-10-26T06:31:34;97326.19;;;13.23;100.00
43701;BME280;58809;47.984;7.964;2022-10-26T06:34:41;97339.53;;;13.30;100.00
43701;BME280;58809;47.984;7.964;2022-10-26T06:37:51;97343.09;;;13.37;100.00
43701;BME280;58809;47.984;7.964;2022-10-26T06:41:04;97344.59;;;13.46;100.00
43701;BME280;58809;47.984;7.964;2022-10-26T06:44:08;97346.63;;;13.51;100.00
43701;BME280;58809;47.984;7.964;2022-10-26T06:47:15;97353.59;;;13.52;100.00
43701;BME280;58809;47.984;7.964;2022-10-26T06:50:36;97363.81;;;13.55;100.00
43701;BME280;58809;47.984;7.964;2022-10-26T06:53:41;97370.00;;;13.56;100.00
43701;BME280;58809;47.984;7.964;2022-10-26T06:56:44;97377.56;;;13.59;100.00
43701;BME280;58809;47.984;7.964;2022-10-26T06:59:53;97368.81;;;13.72;100.00
43701;BME280;58809;47.984;7.964;2022-10-26T07:02:56;97387.16;;;13.95;100.00
43701;BME280;58809;47.984;7.964;2022-10-26T07:05:59;97375.16;;;14.12;100.00
43701;BME280;58809;47.984;7.964;2022-10-26T07:09:00;97376.59;;;14.15;100.00
43701;BME280;58809;47.984;7.964;2022-10-26T07:12:02;97391.75;;;14.14;100.00
43701;BME280;58809;47.984;7.964;2022-10-26T07:15:03;97379.50;;;14.20;100.00
43701;BME280;58809;47.984;7.964;2022-10-26T07:18:06;97386.06;;;14.31;100.00
43701;BME280;58809;47.984;7.964;2022-10-26T07:21:08;97399.81;;;14.41;100.00
43701;BME280;58809;47.984;7.964;2022-10-26T07:24:10;97406.44;;;14.58;100.00
43701;BME280;58809;47.984;7.964;2022-10-26T07:27:12;97405.88;;;14.76;100.00
43701;BME280;58809;47.984;7.964;2022-10-26T07:30:13;97418.16;;;14.91;100.00
43701;BME280;58809;47.984;7.964;2022-10-26T07:33:14;97411.63;;;14.93;100.00
43701;BME280;58809;47.984;7.964;2022-10-26T07:36:16;97419.63;;;14.93;100.00
43701;BME280;58809;47.984;7.964;2022-10-26T07:39:17;97435.19;;;15.03;100.00
43701;BME280;58809;47.984;7.964;2022-10-26T07:42:19;97434.59;;;15.01;100.00
43701;BME280;58809;47.984;7.964;2022-10-26T07:45:20;97437.88;;;15.03;100.00
43701;BME280;58809;47.984;7.964;2022-10-26T07:48:22;97435.41;;;15.08;100.00
43701;BME280;58809;47.984;7.964;2022-10-26T07:51:23;97442.41;;;15.43;100.00
43701;BME280;58809;47.984;7.964;2022-10-26T07:54:25;97445.44;;;15.59;100.00
43701;BME280;58809;47.984;7.964;2022-10-26T07:57:26;97452.22;;;15.62;100.00
43701;BME280;58809;47.984;7.964;2022-10-26T08:00:31;97450.34;;;15.89;100.00
43701;BME280;58809;47.984;7.964;2022-10-26T08:03:44;97459.38;;;15.95;100.00
43701;BME280;58809;47.984;7.964;2022-10-26T08:06:45;97469.81;;;16.10;100.00
43701;BME280;58809;47.984;7.964;2022-10-26T08:09:47;97467.31;;;16.28;97.91
43701;BME280;58809;47.984;7.964;2022-10-26T08:12:48;97466.19;;;16.43;100.00
43701;BME280;58809;47.984;7.964;2022-10-26T08:15:58;97479.13;;;16.52;100.00
43701;BME280;58809;47.984;7.964;2022-10-26T08:19:00;97474.22;;;16.43;100.00
43701;BME280;58809;47.984;7.964;2022-10-26T08:22:02;97488.00;;;16.40;100.00
43701;BME280;58809;47.984;7.964;2022-10-26T08:25:04;97475.25;;;16.42;100.00
43701;BME280;58809;47.984;7.964;2022-10-26T08:28:05;97476.88;;;16.43;100.00
43701;BME280;58809;47.984;7.964;2022-10-26T08:31:07;97483.03;;;16.50;100.00
43701;BME280;58809;47.984;7.964;2022-10-26T08:34:08;97483.41;;;16.60;100.00
43701;BME280;58809;47.984;7.964;2022-10-26T08:37:09;97484.81;;;16.63;95.36
43701;BME280;58809;47.984;7.964;2022-10-26T08:40:14;97487.00;;;16.86;91.15
43701;BME280;58809;47.984;7.964;2022-10-26T08:49:26;97496.38;;;17.59;84.98
43701;BME280;58809;47.984;7.964;2022-10-26T08:52:35;97507.19;;;17.70;79.50
43701;BME280;58809;47.984;7.964;2022-10-26T08:55:41;97507.78;;;17.73;80.92
43701;BME280;58809;47.984;7.964;2022-10-26T08:58:53;97514.78;;;17.74;80.22
43701;BME280;58809;47.984;7.964;2022-10-26T09:01:55;97511.41;;;17.85;76.62
43701;BME280;58809;47.984;7.964;2022-10-26T09:04:57;97502.53;;;17.84;78.40
43701;BME280;58809;47.984;7.964;2022-10-26T09:08:01;97502.72;;;17.89;76.11
43701;BME280;58809;47.984;7.964;2022-10-26T09:24:02;97521.03;;;18.48;73.48
43701;BME280;58809;47.984;7.964;2022-10-26T09:30:18;97526.47;;;18.78;72.32
43701;BME280;58809;47.984;7.964;2022-10-26T09:33:21;97536.97;;;18.98;71.67
43701;BME280;58809;47.984;7.964;2022-10-26T09:36:24;97533.09;;;19.24;68.46
43701;BME280;58809;47.984;7.964;2022-10-26T09:39:31;97537.50;;;19.49;67.46
43701;BME280;58809;47.984;7.964;2022-10-26T09:42:43;97529.25;;;19.74;64.37
43701;BME280;58809;47.984;7.964;2022-10-26T09:45:48;97531.03;;;19.80;65.46
43701;BME280;58809;47.984;7.964;2022-10-26T09:48:54;97536.59;;;19.67;66.27
43701;BME280;58809;47.984;7.964;2022-10-26T09:51:58;97551.81;;;19.73;65.65
43701;BME280;58809;47.984;7.964;2022-10-26T09:54:59;97550.75;;;19.74;65.60
43701;BME280;58809;47.984;7.964;2022-10-26T09:58:02;97563.31;;;19.62;66.14
43701;BME280;58809;47.984;7.964;2022-10-26T10:01:04;97572.16;;;19.51;65.00
43701;BME280;58809;47.984;7.964;2022-10-26T10:07:12;97578.31;;;19.81;65.36
43701;BME280;58809;47.984;7.964;2022-10-26T10:10:16;97565.16;;;20.15;64.84
43701;BME280;58809;47.984;7.964;2022-10-26T10:13:21;97577.28;;;20.42;64.39
43701;BME280;58809;47.984;7.964;2022-10-26T10:16:23;97567.59;;;20.29;62.88
43701;BME280;58809;47.984;7.964;2022-10-26T10:22:26;97593.75;;;19.98;63.85
43701;BME280;58809;47.984;7.964;2022-10-26T10:25:32;97580.03;;;19.76;63.67
43701;BME280;58809;47.984;7.964;2022-10-26T10:28:34;97591.56;;;19.65;64.00
43701;BME280;58809;47.984;7.964;2022-10-26T10:31:35;97589.22;;;19.68;64.83
43701;BME280;58809;47.984;7.964;2022-10-26T10:34:37;97588.22;;;19.81;64.44
43701;BME280;58809;47.984;7.964;2022-10-26T10:37:40;97575.28;;;19.90;63.30
43701;BME280;58809;47.984;7.964;2022-10-26T10:40:51;97587.78;;;19.96;63.21
43701;BME280;58809;47.984;7.964;2022-10-26T10:47:04;97591.09;;;20.10;64.13
43701;BME280;58809;47.984;7.964;2022-10-26T10:50:10;97594.00;;;20.20;64.06
43701;BME280;58809;47.984;7.964;2022-10-26T10:53:20;97591.75;;;20.05;61.91
43701;BME280;58809;47.984;7.964;2022-10-26T11:00:03;97600.13;;;19.85;64.28
43701;BME280;58809;47.984;7.964;2022-10-26T11:06:20;97593.63;;;20.16;63.01
43701;BME280;58809;47.984;7.964;2022-10-26T11:09:24;97588.97;;;20.24;63.24
43701;BME280;58809;47.984;7.964;2022-10-26T11:12:28;97594.47;;;20.29;63.23
43701;BME280;58809;47.984;7.964;2022-10-26T11:15:32;97595.16;;;20.36;62.71
43701;BME280;58809;47.984;7.964;2022-10-26T11:18:35;97597.97;;;20.41;62.88
43701;BME280;58809;47.984;7.964;2022-10-26T11:21:39;97593.50;;;20.58;62.70
43701;BME280;58809;47.984;7.964;2022-10-26T11:27:51;97603.47;;;20.70;62.94
43701;BME280;58809;47.984;7.964;2022-10-26T11:30:57;97597.75;;;20.66;61.93
43701;BME280;58809;47.984;7.964;2022-10-26T11:34:07;97595.06;;;20.66;61.11
43701;BME280;58809;47.984;7.964;2022-10-26T11:37:16;97604.53;;;20.69;61.86
43701;BME280;58809;47.984;7.964;2022-10-26T11:40:23;97593.75;;;20.69;61.27
43701;BME280;58809;47.984;7.964;2022-10-26T11:43:35;97605.44;;;20.74;61.68
43701;BME280;58809;47.984;7.964;2022-10-26T11:46:39;97590.22;;;20.80;61.38
43701;BME280;58809;47.984;7.964;2022-10-26T11:50:01;97596.31;;;20.87;61.15
43701;BME280;58809;47.984;7.964;2022-10-26T11:53:11;97592.06;;;20.91;62.24
43701;BME280;58809;47.984;7.964;2022-10-26T11:56:17;97592.06;;;20.91;60.73
43701;BME280;58809;47.984;7.964;2022-10-26T11:59:23;97589.25;;;20.98;59.86
43701;BME280;58809;47.984;7.964;2022-10-26T12:02:29;97592.28;;;21.02;59.72
43701;BME280;58809;47.984;7.964;2022-10-26T12:05:35;97590.75;;;21.06;59.13
43701;BME280;58809;47.984;7.964;2022-10-26T12:08:45;97597.28;;;21.10;58.98
43701;BME280;58809;47.984;7.964;2022-10-26T12:11:49;97594.25;;;21.06;58.66
43701;BME280;58809;47.984;7.964;2022-10-26T12:18:13;97601.84;;;21.09;58.44
43701;BME280;58809;47.984;7.964;2022-10-26T12:21:27;97610.25;;;21.13;58.69
43701;BME280;58809;47.984;7.964;2022-10-26T12:24:30;97621.84;;;21.13;58.56
43701;BME280;58809;47.984;7.964;2022-10-26T12:30:40;97619.41;;;21.12;58.32
43701;BME280;58809;47.984;7.964;2022-10-26T12:33:48;97611.56;;;21.10;57.14
43701;BME280;58809;47.984;7.964;2022-10-26T12:56:00;97634.47;;;21.25;57.68
43701;BME280;58809;47.984;7.964;2022-10-26T12:59:07;97623.69;;;21.25;57.71
43701;BME280;58809;47.984;7.964;2022-10-26T13:02:22;97625.31;;;21.26;58.17
43701;BME280;58809;47.984;7.964;2022-10-26T13:08:39;97627.66;;;21.22;58.07
43701;BME280;58809;47.984;7.964;2022-10-26T13:11:43;97632.34;;;21.27;58.52
43701;BME280;58809;47.984;7.964;2022-10-26T13:15:02;97627.31;;;21.30;58.99
43701;BME280;58809;47.984;7.964;2022-10-26T13:24:15;97638.16;;;21.35;58.52
43701;BME280;58809;47.984;7.964;2022-10-26T13:30:33;97643.41;;;21.42;57.90
43701;BME280;58809;47.984;7.964;2022-10-26T13:33:37;97628.59;;;21.28;58.05
43701;BME280;58809;47.984;7.964;2022-10-26T13:39:41;97635.22;;;21.37;59.14
43701;BME280;58809;47.984;7.964;2022-10-26T13:42:44;97634.38;;;21.48;58.36
43701;BME280;58809;47.984;7.964;2022-10-26T13:45:54;97635.56;;;21.52;58.71
43701;BME280;58809;47.984;7.964;2022-10-26T13:49:02;97635.78;;;21.51;59.38
43701;BME280;58809;47.984;7.964;2022-10-26T13:52:12;97637.69;;;21.50;59.53
43701;BME280;58809;47.984;7.964;2022-10-26T13:58:49;97628.06;;;21.55;59.26
43701;BME280;58809;47.984;7.964;2022-10-26T14:05:26;97634.59;;;21.59;59.58
43701;BME280;58809;47.984;7.964;2022-10-26T14:08:31;97645.91;;;21.61;60.10
43701;BME280;58809;47.984;7.964;2022-10-26T14:11:36;97640.31;;;21.62;59.78
43701;BME280;58809;47.984;7.964;2022-10-26T14:14:43;97650.66;;;21.70;60.05
43701;BME280;58809;47.984;7.964;2022-10-26T14:17:48;97649.97;;;21.75;59.54
43701;BME280;58809;47.984;7.964;2022-10-26T14:20:57;97662.72;;;21.80;59.01
43701;BME280;58809;47.984;7.964;2022-10-26T14:24:00;97660.59;;;21.82;58.98
43701;BME280;58809;47.984;7.964;2022-10-26T14:27:17;97660.50;;;21.77;59.24
43701;BME280;58809;47.984;7.964;2022-10-26T14:30:29;97659.09;;;21.74;59.03
43701;BME280;58809;47.984;7.964;2022-10-26T14:33:31;97656.69;;;22.06;58.08
43701;BME280;58809;47.984;7.964;2022-10-26T14:36:38;97659.09;;;22.37;57.94
43701;BME280;58809;47.984;7.964;2022-10-26T14:39:41;97665.69;;;23.46;55.83
43701;BME280;58809;47.984;7.964;2022-10-26T14:42:47;97672.66;;;24.51;53.51
43701;BME280;58809;47.984;7.964;2022-10-26T14:45:53;97674.59;;;24.98;51.55
43701;BME280;58809;47.984;7.964;2022-10-26T14:48:55;97674.13;;;25.16;50.66
43701;BME280;58809;47.984;7.964;2022-10-26T14:51:58;97675.19;;;24.25;52.02
43701;BME280;58809;47.984;7.964;2022-10-26T14:55:03;97681.56;;;23.37;54.19
43701;BME280;58809;47.984;7.964;2022-10-26T14:58:07;97670.59;;;22.66;55.66
43701;BME280;58809;47.984;7.964;2022-10-26T15:01:15;97665.75;;;22.17;57.09
43701;BME280;58809;47.984;7.964;2022-10-26T15:04:25;97672.38;;;21.92;58.82
43701;BME280;58809;47.984;7.964;2022-10-26T15:07:35;97675.88;;;21.64;59.33
43701;BME280;58809;47.984;7.964;2022-10-26T15:13:39;97677.97;;;21.45;59.40
43701;BME280;58809;47.984;7.964;2022-10-26T15:16:49;97679.19;;;21.43;60.25
43701;BME280;58809;47.984;7.964;2022-10-26T15:19:51;97687.44;;;21.36;60.16
43701;BME280;58809;47.984;7.964;2022-10-26T15:22:54;97681.97;;;21.19;60.55
43701;BME280;58809;47.984;7.964;2022-10-26T15:25:57;97684.09;;;21.05;61.51
43701;BME280;58809;47.984;7.964;2022-10-26T15:28:59;97691.50;;;20.86;62.26
43701;BME280;58809;47.984;7.964;2022-10-26T15:32:01;97693.03;;;20.70;63.63
43701;BME280;58809;47.984;7.964;2022-10-26T15:38:19;97697.75;;;20.33;66.15
43701;BME280;58809;47.984;7.964;2022-10-26T15:41:27;97696.94;;;20.21;66.82
43701;BME280;58809;47.984;7.964;2022-10-26T15:44:29;97700.72;;;20.01;68.14
43701;BME280;58809;47.984;7.964;2022-10-26T15:47:31;97708.41;;;19.86;70.78
43701;BME280;58809;47.984;7.964;2022-10-26T15:50:33;97707.91;;;19.58;74.95
43701;BME280;58809;47.984;7.964;2022-10-26T15:53:42;97711.88;;;19.37;75.97
43701;BME280;58809;47.984;7.964;2022-10-26T15:56:43;97710.84;;;19.20;78.10
43701;BME280;58809;47.984;7.964;2022-10-26T15:59:45;97716.91;;;18.90;79.15
43701;BME280;58809;47.984;7.964;2022-10-26T16:02:46;97718.78;;;18.64;80.76
43701;BME280;58809;47.984;7.964;2022-10-26T16:05:49;97724.69;;;18.48;81.99
43701;BME280;58809;47.984;7.964;2022-10-26T16:08:52;97726.28;;;18.31;83.98
43701;BME280;58809;47.984;7.964;2022-10-26T16:11:57;97726.22;;;18.12;84.65
43701;BME280;58809;47.984;7.964;2022-10-26T16:15:01;97733.72;;;17.97;86.77
43701;BME280;58809;47.984;7.964;2022-10-26T16:18:06;97731.75;;;17.79;87.40
43701;BME280;58809;47.984;7.964;2022-10-26T16:21:11;97729.38;;;17.57;87.24
43701;BME280;58809;47.984;7.964;2022-10-26T16:24:13;97738.88;;;17.46;89.85
43701;BME280;58809;47.984;7.964;2022-10-26T16:27:14;97744.50;;;17.31;91.90
43701;BME280;58809;47.984;7.964;2022-10-26T16:30:16;97747.84;;;17.20;92.99
43701;BME280;58809;47.984;7.964;2022-10-26T16:33:18;97750.13;;;17.03;94.39
43701;BME280;58809;47.984;7.964;2022-10-26T16:36:19;97760.22;;;16.95;95.28
43701;BME280;58809;47.984;7.964;2022-10-26T16:39:21;97760.44;;;16.86;95.65
43701;BME280;58809;47.984;7.964;2022-10-26T16:42:23;97768.03;;;16.69;95.20
43701;BME280;58809;47.984;7.964;2022-10-26T16:45:24;97762.88;;;16.61;97.13
43701;BME280;58809;47.984;7.964;2022-10-26T16:48:25;97770.69;;;16.49;97.75
43701;BME280;58809;47.984;7.964;2022-10-26T16:51:27;97764.31;;;16.37;98.52
